createdAt,value
2018-03-02T00:02:06.527Z,25.30
2018-03-02T00:05:31.820Z,25.70
2018-03-02T00:08:56.056Z,24.33
2018-03-02T00:12:19.408Z,25.27
2018-03-02T00:15:43.071Z,25.50
2018-03-02T00:19:07.322Z,23.70
2018-03-02T00:22:30.933Z,26.00
2018-03-02T00:25:55.383Z,25.27
2018-03-02T00:29:20.015Z,25.87
2018-03-02T00:32:43.702Z,26.67
2018-03-02T00:36:08.835Z,24.37
2018-03-02T00:39:32.958Z,25.00
2018-03-02T00:42:57.288Z,24.47
2018-03-02T00:46:20.578Z,23.13
2018-03-02T00:49:45.156Z,25.27
2018-03-02T00:53:08.526Z,24.60
2018-03-02T00:56:32.727Z,26.90
2018-03-02T00:59:57.959Z,24.97
2018-03-02T01:03:21.518Z,27.80
2018-03-02T01:06:46.016Z,25.47
2018-03-02T01:10:10.137Z,26.33
2018-03-02T01:13:33.507Z,27.10
2018-03-02T01:16:56.875Z,25.63
2018-03-02T01:20:20.194Z,24.93
2018-03-02T01:23:44.335Z,26.30
2018-03-02T01:27:07.693Z,23.87
2018-03-02T01:30:31.008Z,25.23
2018-03-02T01:33:54.345Z,25.90
2018-03-02T01:37:17.717Z,26.30
2018-03-02T01:40:41.299Z,22.63
2018-03-02T01:44:05.338Z,24.43
2018-03-02T01:47:29.444Z,26.77
2018-03-02T01:50:52.831Z,24.70
2018-03-02T01:54:16.714Z,25.17
2018-03-02T01:57:42.566Z,26.10
2018-03-02T02:01:07.629Z,26.20
2018-03-02T02:04:32.250Z,24.40
2018-03-02T02:07:55.627Z,24.60
2018-03-02T02:11:18.996Z,25.97
2018-03-02T02:14:43.590Z,24.30
2018-03-02T02:18:06.967Z,25.63
2018-03-02T02:21:30.627Z,25.40
2018-03-02T02:24:54.303Z,25.37
2018-03-02T02:28:18.997Z,27.57
2018-03-02T02:31:42.572Z,25.50
2018-03-02T02:35:06.125Z,25.40
2018-03-02T02:38:30.388Z,25.83
2018-03-02T02:41:53.994Z,26.10
2018-03-02T02:45:18.070Z,25.83
2018-03-02T02:48:41.446Z,26.10
2018-03-02T02:52:04.813Z,24.40
2018-03-02T02:55:28.085Z,26.13
2018-03-02T02:58:52.217Z,25.57
2018-03-02T03:02:15.498Z,25.67
2018-03-02T03:05:39.626Z,25.20
2018-03-02T03:09:02.994Z,26.73
2018-03-02T03:12:26.372Z,26.73
2018-03-02T03:15:50.521Z,25.13
2018-03-02T03:19:14.636Z,25.47
2018-03-02T03:22:37.958Z,26.40
2018-03-02T03:26:01.292Z,24.90
2018-03-02T03:29:25.353Z,25.63
2018-03-02T03:32:49.314Z,27.83
2018-03-02T03:36:13.369Z,26.40
2018-03-02T03:39:36.639Z,25.30
2018-03-02T03:42:59.914Z,26.17
2018-03-02T03:46:23.223Z,25.87
2018-03-02T03:49:46.529Z,27.20
2018-03-02T03:53:10.654Z,25.57
2018-03-02T03:56:34.742Z,27.03
2018-03-02T03:59:58.850Z,27.07
2018-03-02T04:03:22.177Z,27.07
2018-03-02T04:06:45.468Z,28.40
2018-03-02T04:10:09.597Z,27.27
2018-03-02T04:13:32.887Z,26.67
2018-03-02T04:16:56.985Z,26.93
2018-03-02T04:20:20.259Z,27.73
2018-03-02T04:23:43.562Z,27.23
2018-03-02T04:27:07.606Z,27.73
2018-03-02T04:30:30.890Z,26.73
2018-03-02T04:33:54.223Z,26.60
2018-03-02T04:37:18.269Z,27.60
2018-03-02T04:40:42.404Z,28.30
2018-03-02T04:44:06.532Z,26.43
2018-03-02T04:47:29.808Z,28.80
2018-03-02T04:50:53.862Z,28.97
2018-03-02T04:54:17.176Z,28.13
2018-03-02T04:57:40.483Z,27.40
2018-03-02T05:01:04.553Z,27.73
2018-03-02T05:04:27.890Z,27.27
2018-03-02T05:07:51.976Z,29.13
2018-03-02T05:11:16.100Z,27.33
2018-03-02T05:14:39.460Z,28.43
2018-03-02T05:18:02.839Z,27.43
2018-03-02T05:21:26.162Z,26.77
2018-03-02T05:24:49.513Z,27.87
2018-03-02T05:28:12.864Z,27.10
2018-03-02T05:31:36.923Z,26.60
2018-03-02T05:35:00.233Z,27.27
2018-03-02T05:38:24.355Z,28.80
2018-03-02T05:41:48.480Z,29.03
2018-03-02T05:45:11.802Z,29.57
2018-03-02T05:48:35.858Z,28.57
2018-03-02T05:51:59.973Z,29.53
2018-03-02T05:55:24.205Z,29.83
2018-03-02T05:58:48.404Z,27.60
2018-03-02T06:02:11.718Z,28.77
2018-03-02T06:05:35.024Z,29.77
2018-03-02T06:08:58.398Z,26.97
2018-03-02T06:12:21.711Z,29.67
2018-03-02T06:15:45.048Z,30.73
2018-03-02T06:19:08.410Z,30.03
2018-03-02T06:22:31.716Z,31.00
2018-03-02T06:25:55.059Z,30.57
2018-03-02T06:29:18.388Z,30.03
2018-03-02T06:32:42.573Z,31.30
2018-03-02T06:36:06.648Z,32.33
2018-03-02T06:39:31.154Z,31.13
2018-03-02T06:42:54.464Z,29.73
2018-03-02T06:46:17.786Z,29.83
2018-03-02T06:49:41.154Z,30.77
2018-03-02T06:53:04.629Z,31.50
2018-03-02T06:56:27.966Z,32.40
2018-03-02T06:59:52.897Z,30.90
2018-03-02T07:03:17.006Z,31.73
2018-03-02T07:06:40.464Z,30.20
2018-03-02T07:10:04.674Z,31.07
2018-03-02T07:13:28.808Z,29.57
2018-03-02T07:16:52.932Z,32.17
2018-03-02T07:20:17.057Z,33.00
2018-03-02T07:23:40.397Z,32.17
2018-03-02T07:27:04.474Z,31.40
2018-03-02T07:30:27.804Z,30.43
2018-03-02T07:33:51.885Z,33.13
2018-03-02T07:37:15.200Z,32.77
2018-03-02T07:40:38.520Z,32.83
2018-03-02T07:44:01.830Z,33.53
2018-03-02T07:47:25.146Z,31.60
2018-03-02T07:50:49.227Z,33.87
2018-03-02T07:54:12.541Z,32.67
2018-03-02T07:57:35.967Z,33.67
2018-03-02T08:00:59.355Z,33.37
2018-03-02T08:04:22.693Z,35.07
2018-03-02T08:07:46.046Z,34.30
2018-03-02T08:11:09.430Z,33.17
2018-03-02T08:14:33.532Z,32.93
2018-03-02T08:17:56.834Z,32.03
2018-03-02T08:21:20.154Z,34.37
2018-03-02T08:24:44.324Z,35.20
2018-03-02T08:28:07.639Z,34.13
2018-03-02T08:31:31.024Z,33.70
2018-03-02T08:34:54.311Z,33.20
2018-03-02T08:38:18.395Z,33.13
2018-03-02T08:41:42.580Z,33.27
2018-03-02T08:45:06.641Z,37.17
2018-03-02T08:48:30.803Z,36.87
2018-03-02T08:51:55.950Z,35.40
2018-03-02T08:55:19.376Z,35.63
2018-03-02T08:58:42.773Z,35.97
2018-03-02T09:02:06.121Z,34.73
2018-03-02T09:05:30.341Z,34.97
2018-03-02T09:08:56.749Z,36.23
2018-03-02T09:12:20.154Z,37.97
2018-03-02T09:15:43.476Z,36.80
2018-03-02T09:19:07.104Z,36.60
2018-03-02T09:22:30.595Z,34.50
2018-03-02T09:25:54.674Z,33.87
2018-03-02T09:29:19.424Z,36.77
2018-03-02T09:32:42.853Z,35.67
2018-03-02T09:36:06.582Z,36.13
2018-03-02T09:39:32.090Z,36.60
2018-03-02T09:42:56.563Z,35.80
2018-03-02T09:46:20.643Z,35.53
2018-03-02T09:49:44.718Z,37.70
2018-03-02T09:53:08.808Z,36.97
2018-03-02T09:56:33.040Z,36.13
2018-03-02T09:59:58.333Z,36.70
2018-03-02T10:03:22.491Z,35.83
2018-03-02T10:06:45.804Z,40.00
2018-03-02T10:10:09.346Z,35.83
2018-03-02T10:13:33.434Z,36.73
2018-03-02T10:16:58.151Z,37.20
2018-03-02T10:20:23.426Z,40.10
2018-03-02T10:23:46.790Z,36.70
2018-03-02T10:27:10.062Z,36.57
2018-03-02T10:30:33.327Z,37.63
2018-03-02T10:33:56.596Z,37.13
2018-03-02T10:37:19.950Z,37.83
2018-03-02T10:40:44.003Z,38.23
2018-03-02T10:44:08.265Z,36.80
2018-03-02T10:47:31.579Z,36.80
2018-03-02T10:50:54.898Z,36.40
2018-03-02T10:54:18.292Z,32.33
2018-03-02T10:57:43.007Z,35.87
2018-03-02T11:01:12.345Z,34.93
2018-03-02T11:04:36.386Z,36.73
2018-03-02T11:08:00.473Z,36.03
2018-03-02T11:11:24.445Z,35.70
2018-03-02T11:14:47.742Z,32.87
2018-03-02T11:18:11.962Z,34.67
2018-03-02T11:21:36.091Z,33.60
2018-03-02T11:24:59.462Z,34.03
2018-03-02T11:28:22.806Z,34.97
2018-03-02T11:31:46.097Z,33.83
2018-03-02T11:35:10.236Z,32.92
2018-03-02T11:38:33.552Z,35.40
2018-03-02T11:41:56.838Z,31.43
2018-03-02T11:45:20.201Z,35.53
2018-03-02T11:48:44.319Z,31.00
2018-03-02T11:52:07.787Z,36.07
2018-03-02T11:55:31.066Z,31.73
2018-03-02T11:58:54.347Z,32.97
2018-03-02T12:02:19.521Z,33.73
2018-03-02T12:05:43.579Z,34.77
2018-03-02T12:09:07.017Z,33.37
2018-03-02T12:12:31.865Z,33.67
2018-03-02T12:15:55.184Z,35.30
2018-03-02T12:19:19.272Z,29.97
2018-03-02T12:22:44.375Z,34.53
2018-03-02T12:26:07.651Z,32.53
2018-03-02T12:29:31.035Z,31.47
2018-03-02T12:32:55.123Z,30.20
2018-03-02T12:36:19.925Z,31.83
2018-03-02T12:39:44.024Z,34.03
2018-03-02T12:43:07.986Z,34.27
2018-03-02T12:46:31.305Z,32.23
2018-03-02T12:49:54.606Z,33.70
2018-03-02T12:53:18.044Z,34.87
2018-03-02T12:56:41.489Z,31.60
2018-03-02T13:00:04.910Z,33.53
2018-03-02T13:03:29.154Z,33.27
2018-03-02T13:06:53.324Z,33.90
2018-03-02T13:10:17.500Z,35.97
2018-03-02T13:13:40.907Z,34.63
2018-03-02T13:17:04.249Z,34.17
2018-03-02T13:20:28.353Z,33.13
2018-03-02T13:23:53.565Z,35.30
2018-03-02T13:27:35.862Z,36.73
2018-03-02T13:30:59.270Z,36.47
2018-03-02T13:34:40.757Z,37.57
2018-03-02T13:38:05.151Z,37.57
2018-03-02T13:41:46.247Z,36.80
2018-03-02T13:45:09.630Z,36.80
2018-03-02T13:48:50.958Z,35.63
2018-03-02T13:52:14.278Z,33.53
2018-03-02T13:55:37.589Z,34.30
2018-03-02T13:59:00.934Z,34.20
2018-03-02T14:02:42.943Z,35.27
2018-03-02T14:06:07.087Z,34.30
2018-03-02T14:09:30.444Z,35.77
2018-03-02T14:12:53.776Z,32.00
2018-03-02T14:16:17.914Z,32.37
2018-03-02T14:19:42.018Z,34.10
2018-03-02T14:23:05.447Z,33.77
2018-03-02T14:26:29.144Z,33.03
2018-03-02T14:29:53.226Z,33.03
2018-03-02T14:33:16.519Z,31.37
2018-03-02T14:36:46.414Z,29.57
2018-03-02T14:40:09.802Z,31.63
2018-03-02T14:43:34.191Z,31.20
2018-03-02T14:46:58.274Z,31.33
2018-03-02T14:50:22.409Z,31.40
2018-03-02T14:53:45.707Z,29.77
2018-03-02T14:57:09.157Z,29.20
2018-03-02T15:00:32.873Z,29.80
2018-03-02T15:03:56.206Z,30.73
2018-03-02T15:07:20.457Z,31.77
2018-03-02T15:10:43.978Z,29.77
2018-03-02T15:14:08.146Z,30.83
2018-03-02T15:17:31.574Z,31.17
2018-03-02T15:20:55.002Z,29.67
2018-03-02T15:24:19.580Z,27.47
2018-03-02T15:27:44.716Z,28.60
2018-03-02T15:31:08.996Z,28.67
2018-03-02T15:34:32.502Z,29.50
2018-03-02T15:37:56.475Z,30.30
2018-03-02T15:41:20.749Z,29.30
2018-03-02T15:44:45.445Z,30.43
2018-03-02T15:48:12.438Z,30.80
2018-03-02T15:51:38.507Z,29.63
2018-03-02T15:55:02.155Z,30.07
2018-03-02T15:58:25.662Z,30.67
2018-03-02T16:01:49.270Z,29.20
2018-03-02T16:05:13.619Z,28.03
2018-03-02T16:08:37.198Z,26.73
2018-03-02T16:12:02.524Z,27.10
2018-03-02T16:15:26.470Z,25.77
2018-03-02T16:18:49.860Z,28.93
2018-03-02T16:22:16.283Z,25.87
2018-03-02T16:25:39.834Z,26.67
2018-03-02T16:29:04.813Z,29.73
2018-03-02T16:32:28.189Z,31.37
2018-03-02T16:35:51.521Z,35.50
2018-03-02T16:39:15.598Z,32.57
2018-03-02T16:42:40.455Z,36.57
2018-03-02T16:46:03.933Z,35.33
2018-03-02T16:49:27.208Z,32.50
2018-03-02T16:52:51.453Z,38.00
2018-03-02T16:56:15.499Z,38.77
2018-03-02T16:59:38.772Z,38.60
2018-03-02T17:03:04.956Z,41.93
2018-03-02T17:06:29.331Z,41.47
2018-03-02T17:09:53.469Z,42.20
2018-03-02T17:13:17.531Z,42.13
2018-03-02T17:16:40.843Z,43.43
2018-03-02T17:20:04.343Z,42.50
2018-03-02T17:23:28.415Z,41.13
2018-03-02T17:26:51.744Z,40.77
2018-03-02T17:30:15.393Z,42.27
2018-03-02T17:33:38.791Z,41.97
2018-03-02T17:37:02.279Z,42.17
2018-03-02T17:40:26.459Z,38.70
2018-03-02T17:43:50.627Z,42.87
2018-03-02T17:47:14.017Z,42.07
2018-03-02T17:50:38.107Z,38.67
2018-03-02T17:54:02.241Z,38.97
2018-03-02T17:57:26.349Z,40.33
2018-03-02T18:00:49.704Z,32.13
2018-03-02T18:04:13.762Z,36.40
2018-03-02T18:07:37.088Z,39.07
2018-03-02T18:11:00.399Z,39.40
2018-03-02T18:14:23.724Z,39.60
2018-03-02T18:17:47.135Z,41.30
2018-03-02T18:21:10.607Z,41.70
2018-03-02T18:24:34.811Z,35.63
2018-03-02T18:27:58.148Z,40.30
2018-03-02T18:31:22.211Z,41.47
2018-03-02T18:34:45.753Z,37.10
2018-03-02T18:38:09.246Z,39.43
2018-03-02T18:41:32.552Z,38.23
2018-03-02T18:44:56.557Z,42.90
2018-03-02T18:48:28.345Z,40.90
2018-03-02T18:51:51.657Z,38.00
2018-03-02T18:55:15.122Z,43.63
2018-03-02T18:58:40.629Z,44.10
2018-03-02T19:02:04.849Z,43.13
2018-03-02T19:05:28.324Z,43.27
2018-03-02T19:08:52.308Z,42.03
2018-03-02T19:12:16.351Z,43.67
2018-03-02T19:15:40.730Z,42.57
2018-03-02T19:19:04.108Z,40.90
2018-03-02T19:22:29.927Z,38.43
2018-03-02T19:25:54.514Z,39.93
2018-03-02T19:29:18.154Z,42.33
2018-03-02T19:32:41.739Z,39.70
2018-03-02T19:36:06.977Z,37.67
2018-03-02T19:39:30.482Z,40.33
2018-03-02T19:42:54.884Z,41.37
2018-03-02T19:46:20.627Z,40.80
2018-03-02T19:49:44.087Z,41.23
2018-03-02T19:53:07.433Z,40.77
2018-03-02T19:56:31.521Z,39.37
2018-03-02T19:59:55.683Z,38.43
2018-03-02T20:03:19.868Z,39.77
2018-03-02T20:06:44.045Z,41.67
2018-03-02T20:10:07.790Z,40.43
2018-03-02T20:13:31.931Z,39.07
2018-03-02T20:16:55.238Z,39.33
2018-03-02T20:20:20.596Z,41.50
2018-03-02T20:23:44.821Z,39.13
2018-03-02T20:27:08.971Z,37.97
2018-03-02T20:30:32.561Z,36.57
2018-03-02T20:33:55.958Z,36.53
2018-03-02T20:37:19.354Z,36.17
2018-03-02T20:40:43.401Z,36.30
2018-03-02T20:44:07.676Z,36.60
2018-03-02T20:47:31.863Z,38.47
2018-03-02T20:50:55.995Z,39.47
2018-03-02T20:54:19.397Z,37.60
2018-03-02T20:57:42.806Z,34.07
2018-03-02T21:01:06.093Z,36.17
2018-03-02T21:04:29.531Z,34.97
2018-03-02T21:07:53.588Z,34.60
2018-03-02T21:11:16.875Z,34.30
2018-03-02T21:14:40.203Z,31.70
2018-03-02T21:18:03.504Z,30.00
2018-03-02T21:21:26.869Z,32.23
2018-03-02T21:24:50.216Z,31.73
2018-03-02T21:28:14.403Z,30.67
2018-03-02T21:31:38.539Z,28.93
2018-03-02T21:35:01.919Z,26.53
2018-03-02T21:38:26.066Z,25.17
2018-03-02T21:41:50.156Z,25.73
2018-03-02T21:45:13.491Z,24.03
2018-03-02T21:48:38.244Z,22.87
2018-03-02T21:52:01.553Z,23.80
2018-03-02T21:55:24.823Z,22.80
2018-03-02T21:58:48.123Z,22.57
2018-03-02T22:02:12.205Z,23.27
2018-03-02T22:05:36.273Z,22.80
2018-03-02T22:08:59.685Z,23.17
2018-03-02T22:12:23.021Z,23.73
2018-03-02T22:15:46.395Z,24.03
2018-03-02T22:19:09.701Z,22.40
2018-03-02T22:22:33.021Z,22.13
2018-03-02T22:25:56.321Z,22.43
2018-03-02T22:29:19.636Z,21.60
2018-03-02T22:32:44.050Z,20.97
2018-03-02T22:36:07.424Z,20.37
2018-03-02T22:39:30.774Z,19.83
2018-03-02T22:42:54.095Z,19.30
2018-03-02T22:46:18.247Z,17.97
2018-03-02T22:49:41.552Z,19.40
2018-03-02T22:53:05.627Z,19.97
2018-03-02T22:56:29.734Z,20.33
2018-03-02T22:59:53.025Z,20.20
2018-03-02T23:03:16.399Z,18.93
2018-03-02T23:06:39.764Z,20.50
2018-03-02T23:10:03.893Z,20.90
2018-03-02T23:13:27.313Z,18.87
2018-03-02T23:16:51.054Z,19.87
2018-03-02T23:20:14.422Z,18.07
2018-03-02T23:23:37.726Z,19.70
2018-03-02T23:27:01.021Z,20.33
2018-03-02T23:30:25.992Z,18.43
2018-03-02T23:33:49.343Z,19.33
2018-03-02T23:37:12.897Z,19.23
2018-03-02T23:40:36.283Z,17.27
2018-03-02T23:43:59.589Z,19.43
2018-03-02T23:47:22.924Z,19.60
2018-03-02T23:50:46.251Z,18.43
2018-03-02T23:54:09.661Z,19.93
2018-03-02T23:57:32.978Z,20.80
